sensor_id;sensor_type;location;lat;lon;timestamp;pressure;altitude;pressure_sealevel;temperature;humidity
43553;BME280;29153;42.696;23.218;2023-02-01T00:00:43;94541.55;;;0.13;87.82
43553;BME280;29153;42.696;23.218;2023-02-01T00:03:10;94552.02;;;0.22;87.99
43553;BME280;29153;42.696;23.218;2023-02-01T00:05:39;94548.91;;;0.23;87.25
43553;BME280;29153;42.696;23.218;2023-02-01T00:08:06;94549.41;;;0.22;87.79
43553;BME280;29153;42.696;23.218;2023-02-01T00:10:34;94548.04;;;0.20;88.01
43553;BME280;29153;42.696;23.218;2023-02-01T00:13:01;94547.04;;;0.21;88.12
43553;BME280;29153;42.696;23.218;2023-02-01T00:15:29;94555.05;;;0.19;87.74
43553;BME280;29153;42.696;23.218;2023-02-01T00:17:56;94562.66;;;0.21;86.97
43553;BME280;29153;42.696;23.218;2023-02-01T00:20:24;94563.36;;;0.19;87.22
43553;BME280;29153;42.696;23.218;2023-02-01T00:22:51;94565.59;;;0.15;87.35
43553;BME280;29153;42.696;23.218;2023-02-01T00:25:19;94568.67;;;0.21;86.80
43553;BME280;29153;42.696;23.218;2023-02-01T00:27:49;94562.18;;;0.15;86.39
43553;BME280;29153;42.696;23.218;2023-02-01T00:30:18;94555.87;;;0.13;86.40
43553;BME280;29153;42.696;23.218;2023-02-01T00:32:45;94563.12;;;0.05;86.54
43553;BME280;29153;42.696;23.218;2023-02-01T00:35:13;94561.63;;;0.06;86.23
43553;BME280;29153;42.696;23.218;2023-02-01T00:37:40;94556.96;;;-0.01;85.24
43553;BME280;29153;42.696;23.218;2023-02-01T00:40:09;94550.91;;;0.05;84.68
43553;BME280;29153;42.696;23.218;2023-02-01T00:42:36;94557.46;;;-0.02;84.76
43553;BME280;29153;42.696;23.218;2023-02-01T00:45:04;94549.97;;;-0.07;84.99
43553;BME280;29153;42.696;23.218;2023-02-01T00:47:32;94549.41;;;-0.16;85.06
43553;BME280;29153;42.696;23.218;2023-02-01T00:50:00;94545.72;;;-0.17;85.02
43553;BME280;29153;42.696;23.218;2023-02-01T00:52:27;94548.33;;;-0.24;84.58
43553;BME280;29153;42.696;23.218;2023-02-01T00:54:55;94544.47;;;-0.37;84.55
43553;BME280;29153;42.696;23.218;2023-02-01T00:57:22;94544.05;;;-0.34;84.03
43553;BME280;29153;42.696;23.218;2023-02-01T00:59:50;94541.57;;;-0.38;84.30
43553;BME280;29153;42.696;23.218;2023-02-01T01:02:17;94541.80;;;-0.46;84.73
43553;BME280;29153;42.696;23.218;2023-02-01T01:04:45;94542.30;;;-0.47;84.85
43553;BME280;29153;42.696;23.218;2023-02-01T01:07:12;94543.48;;;-0.42;84.39
43553;BME280;29153;42.696;23.218;2023-02-01T01:09:40;94542.03;;;-0.54;84.49
43553;BME280;29153;42.696;23.218;2023-02-01T01:12:07;94537.55;;;-0.56;84.31
43553;BME280;29153;42.696;23.218;2023-02-01T01:14:35;94526.00;;;-0.51;83.71
43553;BME280;29153;42.696;23.218;2023-02-01T01:17:02;94530.52;;;-0.49;82.88
43553;BME280;29153;42.696;23.218;2023-02-01T01:19:30;94535.83;;;-0.53;82.93
43553;BME280;29153;42.696;23.218;2023-02-01T01:21:57;94533.73;;;-0.54;82.97
43553;BME280;29153;42.696;23.218;2023-02-01T01:24:25;94529.63;;;-0.52;82.45
43553;BME280;29153;42.696;23.218;2023-02-01T01:26:52;94529.86;;;-0.60;82.25
43553;BME280;29153;42.696;23.218;2023-02-01T01:29:20;94526.45;;;-0.61;81.79
43553;BME280;29153;42.696;23.218;2023-02-01T01:31:48;94533.03;;;-0.58;81.61
43553;BME280;29153;42.696;23.218;2023-02-01T01:34:15;94540.84;;;-0.58;81.61
43553;BME280;29153;42.696;23.218;2023-02-01T01:36:43;94538.23;;;-0.58;81.17
43553;BME280;29153;42.696;23.218;2023-02-01T01:39:10;94545.66;;;-0.62;81.34
43553;BME280;29153;42.696;23.218;2023-02-01T01:41:38;94543.25;;;-0.63;81.14
43553;BME280;29153;42.696;23.218;2023-02-01T01:44:53;94548.06;;;-0.60;81.07
43553;BME280;29153;42.696;23.218;2023-02-01T01:46:37;94546.45;;;-0.61;81.17
43553;BME280;29153;42.696;23.218;2023-02-01T01:49:17;94547.98;;;-0.69;81.42
43553;BME280;29153;42.696;23.218;2023-02-01T01:51:52;94551.05;;;-0.63;81.47
43553;BME280;29153;42.696;23.218;2023-02-01T01:54:26;94549.47;;;-0.71;80.58
43553;BME280;29153;42.696;23.218;2023-02-01T01:56:53;94551.08;;;-0.76;81.49
43553;BME280;29153;42.696;23.218;2023-02-01T01:59:21;94506.63;;;-1.10;81.92
43553;BME280;29153;42.696;23.218;2023-02-01T02:01:50;94534.91;;;-0.92;82.54
43553;BME280;29153;42.696;23.218;2023-02-01T02:04:19;94534.09;;;-0.85;81.93
43553;BME280;29153;42.696;23.218;2023-02-01T02:06:55;94534.50;;;-0.88;82.08
43553;BME280;29153;42.696;23.218;2023-02-01T02:09:23;94535.41;;;-0.92;82.39
43553;BME280;29153;42.696;23.218;2023-02-01T02:11:51;94535.13;;;-1.00;82.65
43553;BME280;29153;42.696;23.218;2023-02-01T02:14:20;94479.97;;;-1.28;82.14
43553;BME280;29153;42.696;23.218;2023-02-01T02:19:54;94532.89;;;-0.89;82.16
43553;BME280;29153;42.696;23.218;2023-02-01T02:39:36;94544.41;;;-0.81;83.47
43553;BME280;29153;42.696;23.218;2023-02-01T02:48:22;94546.48;;;-0.74;83.44
43553;BME280;29153;42.696;23.218;2023-02-01T02:53:25;94546.61;;;-0.92;84.20
43553;BME280;29153;42.696;23.218;2023-02-01T02:56:07;94547.50;;;-0.88;83.97
43553;BME280;29153;42.696;23.218;2023-02-01T02:58:56;94549.11;;;-0.87;84.13
43553;BME280;29153;42.696;23.218;2023-02-01T03:01:42;94536.10;;;-0.94;83.77
43553;BME280;29153;42.696;23.218;2023-02-01T03:04:28;94545.12;;;-0.97;82.44
43553;BME280;29153;42.696;23.218;2023-02-01T03:06:55;94545.50;;;-0.93;82.39
43553;BME280;29153;42.696;23.218;2023-02-01T03:09:31;94552.50;;;-0.94;82.21
43553;BME280;29153;42.696;23.218;2023-02-01T03:11:59;94551.79;;;-0.85;81.64
43553;BME280;29153;42.696;23.218;2023-02-01T03:14:46;94559.20;;;-0.82;81.54
43553;BME280;29153;42.696;23.218;2023-02-01T03:17:18;94560.79;;;-0.74;81.21
43553;BME280;29153;42.696;23.218;2023-02-01T03:19:47;94566.89;;;-0.84;81.54
43553;BME280;29153;42.696;23.218;2023-02-01T03:22:20;94567.11;;;-0.93;81.83
43553;BME280;29153;42.696;23.218;2023-02-01T03:25:14;94563.80;;;-0.97;82.56
43553;BME280;29153;42.696;23.218;2023-02-01T03:27:51;94566.00;;;-0.94;83.27
43553;BME280;29153;42.696;23.218;2023-02-01T03:30:24;94564.89;;;-0.89;82.85
43553;BME280;29153;42.696;23.218;2023-02-01T03:32:55;94562.90;;;-0.94;83.16
43553;BME280;29153;42.696;23.218;2023-02-01T03:38:19;94566.02;;;-1.01;83.65
43553;BME280;29153;42.696;23.218;2023-02-01T03:40:51;94562.91;;;-1.07;84.28
43553;BME280;29153;42.696;23.218;2023-02-01T03:43:19;94563.92;;;-0.95;83.95
43553;BME280;29153;42.696;23.218;2023-02-01T03:45:50;94563.62;;;-0.96;83.83
43553;BME280;29153;42.696;23.218;2023-02-01T03:48:19;94566.80;;;-0.94;83.71
43553;BME280;29153;42.696;23.218;2023-02-01T03:50:51;94554.52;;;-0.96;83.92
43553;BME280;29153;42.696;23.218;2023-02-01T03:53:20;94558.41;;;-0.82;83.27
43553;BME280;29153;42.696;23.218;2023-02-01T03:55:51;94566.81;;;-0.87;83.32
43553;BME280;29153;42.696;23.218;2023-02-01T03:58:21;94569.78;;;-0.77;83.69
43553;BME280;29153;42.696;23.218;2023-02-01T04:00:55;94570.58;;;-0.70;83.03
43553;BME280;29153;42.696;23.218;2023-02-01T04:03:24;94574.46;;;-0.63;83.58
43553;BME280;29153;42.696;23.218;2023-02-01T04:05:52;94573.97;;;-0.56;83.00
43553;BME280;29153;42.696;23.218;2023-02-01T04:08:23;94576.34;;;-0.48;82.88
43553;BME280;29153;42.696;23.218;2023-02-01T04:10:50;94574.32;;;-0.46;83.46
43553;BME280;29153;42.696;23.218;2023-02-01T04:13:18;94570.73;;;-0.45;83.64
43553;BME280;29153;42.696;23.218;2023-02-01T04:15:47;94570.00;;;-0.36;83.23
43553;BME280;29153;42.696;23.218;2023-02-01T04:18:16;94571.61;;;-0.35;83.01
43553;BME280;29153;42.696;23.218;2023-02-01T04:20:43;94574.06;;;-0.25;83.02
43553;BME280;29153;42.696;23.218;2023-02-01T04:23:11;94574.17;;;-0.22;82.84
43553;BME280;29153;42.696;23.218;2023-02-01T04:25:38;94575.97;;;-0.23;82.79
43553;BME280;29153;42.696;23.218;2023-02-01T04:28:06;94575.66;;;-0.24;83.29
43553;BME280;29153;42.696;23.218;2023-02-01T04:30:33;94578.19;;;-0.26;83.88
43553;BME280;29153;42.696;23.218;2023-02-01T04:33:01;94575.85;;;-0.19;84.31
43553;BME280;29153;42.696;23.218;2023-02-01T04:35:30;94575.23;;;-0.14;84.40
43553;BME280;29153;42.696;23.218;2023-02-01T04:37:59;94576.31;;;-0.13;84.22
43553;BME280;29153;42.696;23.218;2023-02-01T04:40:26;94576.31;;;-0.13;84.31
43553;BME280;29153;42.696;23.218;2023-02-01T04:42:54;94574.50;;;-0.06;84.15
43553;BME280;29153;42.696;23.218;2023-02-01T04:45:22;94576.19;;;-0.02;83.77
43553;BME280;29153;42.696;23.218;2023-02-01T04:47:49;94578.67;;;0.02;84.09
43553;BME280;29153;42.696;23.218;2023-02-01T04:50:17;94585.38;;;0.00;83.79
43553;BME280;29153;42.696;23.218;2023-02-01T04:52:44;94582.87;;;0.03;84.14
43553;BME280;29153;42.696;23.218;2023-02-01T04:55:12;94579.17;;;0.02;84.17
43553;BME280;29153;42.696;23.218;2023-02-01T04:57:43;94581.77;;;0.02;84.10
43553;BME280;29153;42.696;23.218;2023-02-01T05:00:11;94589.47;;;0.06;83.73
43553;BME280;29153;42.696;23.218;2023-02-01T05:02:39;94596.89;;;0.02;84.57
43553;BME280;29153;42.696;23.218;2023-02-01T05:05:07;94524.84;;;-0.33;84.46
43553;BME280;29153;42.696;23.218;2023-02-01T05:07:35;94594.44;;;0.14;83.71
43553;BME280;29153;42.696;23.218;2023-02-01T05:10:02;94601.93;;;0.19;83.50
43553;BME280;29153;42.696;23.218;2023-02-01T05:12:30;94602.73;;;0.20;83.80
43553;BME280;29153;42.696;23.218;2023-02-01T05:15:15;94607.40;;;0.27;84.06
43553;BME280;29153;42.696;23.218;2023-02-01T05:17:43;94606.64;;;0.20;84.13
43553;BME280;29153;42.696;23.218;2023-02-01T05:20:10;94605.41;;;0.22;84.19
43553;BME280;29153;42.696;23.218;2023-02-01T05:22:38;94599.28;;;0.26;83.82
43553;BME280;29153;42.696;23.218;2023-02-01T05:25:06;94601.19;;;0.28;84.01
43553;BME280;29153;42.696;23.218;2023-02-01T05:27:33;94596.58;;;0.30;83.75
43553;BME280;29153;42.696;23.218;2023-02-01T05:30:02;94607.28;;;0.31;83.86
43553;BME280;29153;42.696;23.218;2023-02-01T05:32:30;94611.48;;;0.32;83.84
43553;BME280;29153;42.696;23.218;2023-02-01T05:34:58;94603.13;;;0.39;83.84
43553;BME280;29153;42.696;23.218;2023-02-01T05:37:25;94601.55;;;0.38;83.58
43553;BME280;29153;42.696;23.218;2023-02-01T05:39:53;94600.39;;;0.43;83.57
43553;BME280;29153;42.696;23.218;2023-02-01T05:42:20;94600.32;;;0.40;83.74
43553;BME280;29153;42.696;23.218;2023-02-01T05:44:48;94601.50;;;0.44;83.87
43553;BME280;29153;42.696;23.218;2023-02-01T05:47:15;94602.48;;;0.50;83.67
43553;BME280;29153;42.696;23.218;2023-02-01T05:49:43;94601.88;;;0.48;83.67
43553;BME280;29153;42.696;23.218;2023-02-01T05:52:10;94609.17;;;0.55;82.90
43553;BME280;29153;42.696;23.218;2023-02-01T05:54:38;94605.14;;;0.59;81.99
43553;BME280;29153;42.696;23.218;2023-02-01T05:57:05;94604.84;;;0.58;82.07
43553;BME280;29153;42.696;23.218;2023-02-01T05:59:33;94606.02;;;0.62;82.39
43553;BME280;29153;42.696;23.218;2023-02-01T06:02:02;94616.56;;;0.58;82.37
43553;BME280;29153;42.696;23.218;2023-02-01T06:04:29;94552.56;;;0.15;82.18
43553;BME280;29153;42.696;23.218;2023-02-01T06:06:57;94615.34;;;0.61;82.31
43553;BME280;29153;42.696;23.218;2023-02-01T06:09:24;94617.12;;;0.51;82.70
43553;BME280;29153;42.696;23.218;2023-02-01T06:11:52;94616.19;;;0.55;82.98
43553;BME280;29153;42.696;23.218;2023-02-01T06:14:20;94618.44;;;0.60;82.16
43553;BME280;29153;42.696;23.218;2023-02-01T06:16:47;94616.73;;;0.63;81.84
43553;BME280;29153;42.696;23.218;2023-02-01T06:19:15;94622.40;;;0.69;81.38
43553;BME280;29153;42.696;23.218;2023-02-01T06:21:42;94618.72;;;0.68;81.79
43553;BME280;29153;42.696;23.218;2023-02-01T06:24:10;94617.66;;;0.75;81.27
43553;BME280;29153;42.696;23.218;2023-02-01T06:26:38;94621.07;;;0.76;81.50
43553;BME280;29153;42.696;23.218;2023-02-01T06:29:12;94622.02;;;0.81;80.73
43553;BME280;29153;42.696;23.218;2023-02-01T06:31:40;94622.92;;;0.84;80.65
43553;BME280;29153;42.696;23.218;2023-02-01T06:34:09;94623.55;;;0.80;81.04
43553;BME280;29153;42.696;23.218;2023-02-01T06:36:36;94615.13;;;0.78;81.14
43553;BME280;29153;42.696;23.218;2023-02-01T06:39:04;94617.11;;;0.82;81.31
43553;BME280;29153;42.696;23.218;2023-02-01T06:41:32;94626.33;;;0.85;81.10
43553;BME280;29153;42.696;23.218;2023-02-01T06:44:01;94626.47;;;0.90;81.49
43553;BME280;29153;42.696;23.218;2023-02-01T06:46:30;94632.03;;;1.00;79.86
43553;BME280;29153;42.696;23.218;2023-02-01T06:48:57;94631.06;;;0.95;80.44
43553;BME280;29153;42.696;23.218;2023-02-01T06:51:26;94632.46;;;0.97;80.99
43553;BME280;29153;42.696;23.218;2023-02-01T06:53:56;94636.05;;;1.03;80.75
43553;BME280;29153;42.696;23.218;2023-02-01T06:56:23;94638.59;;;1.09;79.77
43553;BME280;29153;42.696;23.218;2023-02-01T06:58:51;94642.97;;;1.15;79.81
43553;BME280;29153;42.696;23.218;2023-02-01T07:01:19;94640.59;;;1.07;79.21
43553;BME280;29153;42.696;23.218;2023-02-01T07:03:50;94646.84;;;1.06;80.26
43553;BME280;29153;42.696;23.218;2023-02-01T07:06:18;94661.77;;;1.08;80.31
43553;BME280;29153;42.696;23.218;2023-02-01T07:08:46;94664.91;;;1.17;80.10
43553;BME280;29153;42.696;23.218;2023-02-01T07:11:15;94662.64;;;1.27;79.89
43553;BME280;29153;42.696;23.218;2023-02-01T07:13:43;94675.25;;;1.30;79.46
43553;BME280;29153;42.696;23.218;2023-02-01T07:16:13;94675.22;;;1.36;79.32
43553;BME280;29153;42.696;23.218;2023-02-01T07:18:41;94672.75;;;1.32;78.99
43553;BME280;29153;42.696;23.218;2023-02-01T07:21:09;94667.73;;;1.31;79.33
43553;BME280;29153;42.696;23.218;2023-02-01T07:23:37;94672.21;;;1.49;79.41
43553;BME280;29153;42.696;23.218;2023-02-01T07:26:06;94682.34;;;1.48;78.42
43553;BME280;29153;42.696;23.218;2023-02-01T07:28:36;94679.91;;;1.53;78.92
43553;BME280;29153;42.696;23.218;2023-02-01T07:31:06;94692.19;;;1.61;78.05
43553;BME280;29153;42.696;23.218;2023-02-01T07:33:34;94685.29;;;1.58;77.92
43553;BME280;29153;42.696;23.218;2023-02-01T07:36:03;94692.38;;;1.60;78.07
43553;BME280;29153;42.696;23.218;2023-02-01T07:38:32;94686.41;;;1.77;78.01
43553;BME280;29153;42.696;23.218;2023-02-01T07:41:02;94698.46;;;1.78;77.36
43553;BME280;29153;42.696;23.218;2023-02-01T07:43:31;94688.60;;;1.90;76.73
43553;BME280;29153;42.696;23.218;2023-02-01T07:46:00;94684.26;;;2.02;75.94
43553;BME280;29153;42.696;23.218;2023-02-01T07:48:28;94691.52;;;2.00;75.81
43553;BME280;29153;42.696;23.218;2023-02-01T07:51:03;94698.05;;;2.00;75.78
43553;BME280;29153;42.696;23.218;2023-02-01T07:53:32;94702.55;;;2.02;75.33
43553;BME280;29153;42.696;23.218;2023-02-01T07:56:00;94695.80;;;2.03;76.34
43553;BME280;29153;42.696;23.218;2023-02-01T07:58:28;94702.65;;;2.13;75.50
43553;BME280;29153;42.696;23.218;2023-02-01T08:00:57;94695.17;;;2.17;75.18
43553;BME280;29153;42.696;23.218;2023-02-01T08:03:54;94702.14;;;2.14;75.06
43553;BME280;29153;42.696;23.218;2023-02-01T08:06:20;94709.53;;;2.08;75.79
43553;BME280;29153;42.696;23.218;2023-02-01T08:08:49;94709.09;;;2.20;75.19
43553;BME280;29153;42.696;23.218;2023-02-01T08:11:17;94712.73;;;2.37;73.88
43553;BME280;29153;42.696;23.218;2023-02-01T08:13:45;94712.02;;;2.30;74.43
43553;BME280;29153;42.696;23.218;2023-02-01T08:16:14;94707.87;;;2.41;74.97
43553;BME280;29153;42.696;23.218;2023-02-01T08:18:42;94716.30;;;2.43;74.91
43553;BME280;29153;42.696;23.218;2023-02-01T08:21:19;94712.23;;;2.56;73.67
43553;BME280;29153;42.696;23.218;2023-02-01T08:23:48;94710.27;;;2.60;73.19
43553;BME280;29153;42.696;23.218;2023-02-01T08:26:18;94714.04;;;2.73;73.47
43553;BME280;29153;42.696;23.218;2023-02-01T08:28:56;94726.73;;;2.70;72.78
43553;BME280;29153;42.696;23.218;2023-02-01T08:31:33;94721.14;;;2.75;73.53
43553;BME280;29153;42.696;23.218;2023-02-01T08:34:03;94719.84;;;2.57;73.36
43553;BME280;29153;42.696;23.218;2023-02-01T08:36:30;94729.23;;;2.65;71.82
43553;BME280;29153;42.696;23.218;2023-02-01T08:38:57;94714.96;;;2.70;73.22
43553;BME280;29153;42.696;23.218;2023-02-01T08:41:29;94725.20;;;2.90;73.64
43553;BME280;29153;42.696;23.218;2023-02-01T08:43:57;94727.00;;;2.98;72.83
43553;BME280;29153;42.696;23.218;2023-02-01T08:46:25;94722.10;;;3.11;71.64
43553;BME280;29153;42.696;23.218;2023-02-01T08:48:53;94715.72;;;3.28;71.34
43553;BME280;29153;42.696;23.218;2023-02-01T08:51:21;94711.42;;;3.33;71.53
43553;BME280;29153;42.696;23.218;2023-02-01T08:53:49;94699.74;;;3.38;71.34
43553;BME280;29153;42.696;23.218;2023-02-01T08:56:19;94711.75;;;3.57;70.22
43553;BME280;29153;42.696;23.218;2023-02-01T08:58:46;94708.08;;;4.02;71.01
43553;BME280;29153;42.696;23.218;2023-02-01T09:01:15;94711.02;;;4.41;70.36
43553;BME280;29153;42.696;23.218;2023-02-01T09:03:43;94710.93;;;4.36;68.11
43553;BME280;29153;42.696;23.218;2023-02-01T09:06:12;94720.17;;;4.27;67.53
43553;BME280;29153;42.696;23.218;2023-02-01T09:08:41;94714.67;;;4.28;67.18
43553;BME280;29153;42.696;23.218;2023-02-01T09:11:12;94731.40;;;4.36;67.15
43553;BME280;29153;42.696;23.218;2023-02-01T09:13:39;94727.06;;;4.30;67.04
43553;BME280;29153;42.696;23.218;2023-02-01T09:16:08;94717.06;;;4.41;67.80
43553;BME280;29153;42.696;23.218;2023-02-01T09:18:35;94726.86;;;4.46;67.78
43553;BME280;29153;42.696;23.218;2023-02-01T09:21:05;94729.63;;;4.39;68.08
43553;BME280;29153;42.696;23.218;2023-02-01T09:23:36;94724.20;;;4.43;68.59
43553;BME280;29153;42.696;23.218;2023-02-01T09:26:04;94737.61;;;4.96;67.17
43553;BME280;29153;42.696;23.218;2023-02-01T09:28:33;94747.27;;;5.35;64.59
43553;BME280;29153;42.696;23.218;2023-02-01T09:31:01;94735.54;;;5.40;63.53
43553;BME280;29153;42.696;23.218;2023-02-01T09:33:29;94724.91;;;5.33;64.76
43553;BME280;29153;42.696;23.218;2023-02-01T09:35:59;94727.56;;;5.35;63.58
43553;BME280;29153;42.696;23.218;2023-02-01T09:38:27;94722.05;;;5.20;63.07
43553;BME280;29153;42.696;23.218;2023-02-01T09:40:55;94715.26;;;5.22;64.21
43553;BME280;29153;42.696;23.218;2023-02-01T09:43:36;94712.57;;;5.19;63.91
43553;BME280;29153;42.696;23.218;2023-02-01T09:48:53;94708.16;;;4.94;60.47
43553;BME280;29153;42.696;23.218;2023-02-01T09:51:33;94704.84;;;5.13;62.84
43553;BME280;29153;42.696;23.218;2023-02-01T09:54:14;94695.56;;;5.08;61.99
43553;BME280;29153;42.696;23.218;2023-02-01T09:56:49;94682.52;;;4.98;63.75
43553;BME280;29153;42.696;23.218;2023-02-01T10:02:24;94675.45;;;4.99;64.44
43553;BME280;29153;42.696;23.218;2023-02-01T10:04:44;94676.30;;;5.47;64.96
43553;BME280;29153;42.696;23.218;2023-02-01T10:07:14;94674.91;;;5.59;62.08
43553;BME280;29153;42.696;23.218;2023-02-01T10:09:44;94688.42;;;5.65;62.63
43553;BME280;29153;42.696;23.218;2023-02-01T10:15:21;94668.41;;;5.16;62.36
43553;BME280;29153;42.696;23.218;2023-02-01T10:21:07;94678.27;;;5.40;62.28
43553;BME280;29153;42.696;23.218;2023-02-01T10:26:25;94664.42;;;5.44;64.90
43553;BME280;29153;42.696;23.218;2023-02-01T10:28:58;94664.59;;;5.71;64.19
43553;BME280;29153;42.696;23.218;2023-02-01T10:31:28;94658.43;;;5.97;62.43
43553;BME280;29153;42.696;23.218;2023-02-01T10:34:00;94654.66;;;6.09;61.84
43553;BME280;29153;42.696;23.218;2023-02-01T10:38:59;94655.59;;;6.61;61.02
43553;BME280;29153;42.696;23.218;2023-02-01T10:41:34;94664.67;;;6.72;59.39
43553;BME280;29153;42.696;23.218;2023-02-01T10:44:11;94654.20;;;6.34;58.93
43553;BME280;29153;42.696;23.218;2023-02-01T10:46:39;94657.78;;;6.06;59.95
43553;BME280;29153;42.696;23.218;2023-02-01T10:49:12;94652.39;;;5.82;59.83
43553;BME280;29153;42.696;23.218;2023-02-01T10:51:51;94649.14;;;5.75;62.38
43553;BME280;29153;42.696;23.218;2023-02-01T10:54:21;94638.00;;;6.20;64.60
43553;BME280;29153;42.696;23.218;2023-02-01T10:56:50;94651.92;;;6.40;61.80
43553;BME280;29153;42.696;23.218;2023-02-01T10:59:21;94634.75;;;6.35;61.72
43553;BME280;29153;42.696;23.218;2023-02-01T11:01:50;94644.03;;;6.21;59.94
43553;BME280;29153;42.696;23.218;2023-02-01T11:04:20;94647.57;;;6.10;60.67
43553;BME280;29153;42.696;23.218;2023-02-01T11:09:40;94649.61;;;6.05;60.89
43553;BME280;29153;42.696;23.218;2023-02-01T11:12:30;94645.44;;;6.07;62.14
43553;BME280;29153;42.696;23.218;2023-02-01T11:15:23;94637.93;;;6.15;60.99
43553;BME280;29153;42.696;23.218;2023-02-01T11:17:49;94628.23;;;6.18;63.19
43553;BME280;29153;42.696;23.218;2023-02-01T11:20:33;94623.71;;;5.94;62.83
43553;BME280;29153;42.696;23.218;2023-02-01T11:22:54;94644.20;;;5.95;62.66
43553;BME280;29153;42.696;23.218;2023-02-01T11:25:23;94632.88;;;5.78;60.17
43553;BME280;29153;42.696;23.218;2023-02-01T11:27:53;94608.91;;;5.91;63.05
43553;BME280;29153;42.696;23.218;2023-02-01T11:30:36;94623.91;;;6.10;62.13
43553;BME280;29153;42.696;23.218;2023-02-01T11:33:05;94608.92;;;6.10;64.09
43553;BME280;29153;42.696;23.218;2023-02-01T11:35:39;94616.81;;;6.10;60.67
43553;BME280;29153;42.696;23.218;2023-02-01T11:38:27;94609.52;;;6.15;62.42
43553;BME280;29153;42.696;23.218;2023-02-01T11:40:54;94611.22;;;6.26;61.37
43553;BME280;29153;42.696;23.218;2023-02-01T11:43:27;94616.16;;;6.20;61.12
43553;BME280;29153;42.696;23.218;2023-02-01T11:46:00;94608.78;;;6.19;61.85
43553;BME280;29153;42.696;23.218;2023-02-01T11:48:31;94618.38;;;6.30;61.18
43553;BME280;29153;42.696;23.218;2023-02-01T11:51:22;94600.32;;;6.36;61.26
43553;BME280;29153;42.696;23.218;2023-02-01T12:02:33;94594.58;;;6.42;60.47
43553;BME280;29153;42.696;23.218;2023-02-01T12:05:04;94592.80;;;6.04;60.57
43553;BME280;29153;42.696;23.218;2023-02-01T12:12:57;94593.27;;;6.42;60.67
43553;BME280;29153;42.696;23.218;2023-02-01T12:15:28;94588.28;;;6.43;60.72
43553;BME280;29153;42.696;23.218;2023-02-01T12:23:56;94594.02;;;6.16;62.39
43553;BME280;29153;42.696;23.218;2023-02-01T12:29:25;94588.27;;;6.00;60.28
43553;BME280;29153;42.696;23.218;2023-02-01T12:42:40;94596.63;;;5.94;58.37
43553;BME280;29153;42.696;23.218;2023-02-01T12:45:14;94591.52;;;5.87;61.41
43553;BME280;29153;42.696;23.218;2023-02-01T12:47:49;94591.75;;;5.86;59.12
43553;BME280;29153;42.696;23.218;2023-02-01T12:50:31;94596.06;;;6.11;61.54
43553;BME280;29153;42.696;23.218;2023-02-01T12:52:56;94598.14;;;6.31;58.71
43553;BME280;29153;42.696;23.218;2023-02-01T12:55:27;94595.64;;;6.19;55.29
43553;BME280;29153;42.696;23.218;2023-02-01T12:58:04;94594.34;;;6.22;58.95
43553;BME280;29153;42.696;23.218;2023-02-01T13:00:35;94584.27;;;6.16;60.45
43553;BME280;29153;42.696;23.218;2023-02-01T13:03:28;94589.70;;;6.07;56.59
43553;BME280;29153;42.696;23.218;2023-02-01T13:05:44;94589.69;;;5.88;57.29
43553;BME280;29153;42.696;23.218;2023-02-01T13:08:14;94591.93;;;5.63;59.08
43553;BME280;29153;42.696;23.218;2023-02-01T13:10:47;94585.77;;;5.55;58.44
43553;BME280;29153;42.696;23.218;2023-02-01T13:13:22;94584.17;;;5.54;58.20
43553;BME280;29153;42.696;23.218;2023-02-01T13:16:25;94591.85;;;5.58;58.81
43553;BME280;29153;42.696;23.218;2023-02-01T13:19:14;94590.05;;;5.61;57.86
43553;BME280;29153;42.696;23.218;2023-02-01T13:21:43;94586.06;;;5.56;56.74
43553;BME280;29153;42.696;23.218;2023-02-01T13:24:24;94581.86;;;5.57;58.68
43553;BME280;29153;42.696;23.218;2023-02-01T13:26:55;94580.16;;;5.48;58.53
43553;BME280;29153;42.696;23.218;2023-02-01T13:29:24;94564.55;;;5.59;57.66
43553;BME280;29153;42.696;23.218;2023-02-01T13:32:07;94569.03;;;5.61;59.28
43553;BME280;29153;42.696;23.218;2023-02-01T13:34:49;94563.03;;;5.63;58.54
43553;BME280;29153;42.696;23.218;2023-02-01T13:42:29;94564.86;;;5.62;57.83
43553;BME280;29153;42.696;23.218;2023-02-01T13:45:05;94564.27;;;5.58;57.76
43553;BME280;29153;42.696;23.218;2023-02-01T13:47:38;94573.38;;;5.53;57.80
43553;BME280;29153;42.696;23.218;2023-02-01T13:52:51;94581.44;;;5.46;58.77
43553;BME280;29153;42.696;23.218;2023-02-01T13:55:37;94574.98;;;5.54;59.93
43553;BME280;29153;42.696;23.218;2023-02-01T13:58:29;94584.48;;;5.57;57.08
43553;BME280;29153;42.696;23.218;2023-02-01T14:00:53;94583.48;;;5.61;58.04
43553;BME280;29153;42.696;23.218;2023-02-01T14:03:22;94581.55;;;5.54;57.60
43553;BME280;29153;42.696;23.218;2023-02-01T14:05:55;94590.72;;;5.70;57.10
43553;BME280;29153;42.696;23.218;2023-02-01T14:08:38;94590.61;;;5.82;58.48
43553;BME280;29153;42.696;23.218;2023-02-01T14:11:40;94593.35;;;5.70;58.03
43553;BME280;29153;42.696;23.218;2023-02-01T14:19:28;94586.11;;;5.61;57.19
43553;BME280;29153;42.696;23.218;2023-02-01T14:22:32;94580.20;;;5.51;57.26
43553;BME280;29153;42.696;23.218;2023-02-01T14:24:30;94573.44;;;5.55;58.49
43553;BME280;29153;42.696;23.218;2023-02-01T14:29:43;94569.83;;;5.25;59.22
43553;BME280;29153;42.696;23.218;2023-02-01T14:32:23;94567.63;;;5.20;60.74
43553;BME280;29153;42.696;23.218;2023-02-01T14:37:24;94564.80;;;5.24;60.16
43553;BME280;29153;42.696;23.218;2023-02-01T14:40:39;94550.96;;;4.95;58.80
43553;BME280;29153;42.696;23.218;2023-02-01T14:42:46;94543.73;;;4.88;59.27
43553;BME280;29153;42.696;23.218;2023-02-01T14:50:39;94550.72;;;4.51;60.96
43553;BME280;29153;42.696;23.218;2023-02-01T14:55:59;94551.75;;;4.50;61.94
43553;BME280;29153;42.696;23.218;2023-02-01T14:58:35;94558.55;;;4.35;62.84
43553;BME280;29153;42.696;23.218;2023-02-01T15:01:05;94556.42;;;4.20;63.64
43553;BME280;29153;42.696;23.218;2023-02-01T15:06:52;94538.54;;;4.17;64.14
43553;BME280;29153;42.696;23.218;2023-02-01T15:09:33;94545.69;;;4.07;65.27
43553;BME280;29153;42.696;23.218;2023-02-01T15:14:44;94551.77;;;3.96;66.41